Eau Galle, Wisconsin
Current Conditions -  °F | °C
As of 6:15 PM on Friday 24 Oct 2014 (Local Time) from KLUM Reporting Station
Haze Haze  
Wind Chill: 57°   Ceiling: 800
Heat Index: 57°   Visibility: 5mi
Dew Point: 56°   Wind: 6mph
Humidity: 94%   Direction: 190°S
Pressure: 29.87"   Gusts: NA
Location:  44.69°N, 92.01°W
Report Text: KLUM 242315Z AUTO 19005KT 5SM BR OVC008 14/13 A2987 RMK AO2 T01410132
Loading
Personal Weather Stations






























Interactive Weather Map
Tropical Storm Tracking
New forecast layout! Learn more

10-Day Weather Forecast

Advertisements
Track Severe Weather on mobile